createdAt,value
2022-09-09T00:00:51.887Z,3.30
2022-09-09T00:03:21.789Z,4.83
2022-09-09T00:05:54.920Z,4.13
2022-09-09T00:08:24.737Z,5.87
2022-09-09T00:10:57.102Z,6.23
2022-09-09T00:13:28.722Z,4.60
2022-09-09T00:16:00.410Z,3.77
2022-09-09T00:18:31.540Z,5.30
2022-09-09T00:21:03.881Z,6.03
2022-09-09T00:23:33.154Z,4.73
2022-09-09T00:26:06.706Z,3.67
2022-09-09T00:28:39.912Z,4.90
2022-09-09T00:31:13.745Z,4.00
2022-09-09T00:33:43.473Z,6.47
2022-09-09T00:36:16.556Z,6.70
2022-09-09T00:38:46.167Z,3.30
2022-09-09T00:41:18.321Z,3.63
2022-09-09T00:43:49.492Z,4.20
2022-09-09T00:46:25.729Z,4.77
2022-09-09T00:48:57.065Z,3.87
2022-09-09T00:51:29.175Z,3.53
2022-09-09T00:54:11.826Z,3.07
2022-09-09T00:56:45.543Z,4.53
2022-09-09T00:59:19.546Z,4.97
2022-09-09T01:01:47.796Z,3.40
2022-09-09T01:04:19.309Z,3.43
2022-09-09T01:06:53.092Z,2.50
2022-09-09T01:09:25.359Z,3.30
2022-09-09T01:12:00.094Z,2.57
2022-09-09T01:14:40.962Z,2.00
2022-09-09T01:17:12.119Z,2.63
2022-09-09T01:19:48.147Z,2.60
2022-09-09T01:22:22.758Z,2.50
2022-09-09T01:24:57.302Z,1.90
2022-09-09T01:27:27.339Z,1.80
2022-09-09T01:29:56.038Z,1.53
2022-09-09T01:32:44.490Z,1.83
2022-09-09T01:35:14.425Z,1.70
2022-09-09T01:37:42.924Z,2.03
2022-09-09T01:40:11.373Z,3.37
2022-09-09T01:42:40.939Z,2.23
2022-09-09T01:45:09.712Z,1.77
2022-09-09T01:47:38.473Z,2.00
2022-09-09T01:50:07.013Z,2.80
2022-09-09T01:52:36.651Z,4.43
2022-09-09T01:55:04.938Z,2.57
2022-09-09T01:57:35.003Z,2.97
2022-09-09T02:00:08.997Z,2.63
2022-09-09T02:02:39.228Z,2.97
2022-09-09T02:05:13.662Z,4.03
2022-09-09T02:07:43.299Z,3.87
2022-09-09T02:10:13.237Z,3.90
2022-09-09T02:12:43.274Z,4.50
2022-09-09T02:15:16.882Z,5.73
2022-09-09T02:17:45.061Z,3.80
2022-09-09T02:20:15.263Z,4.53
2022-09-09T02:22:46.057Z,5.00
2022-09-09T02:25:16.193Z,4.77
2022-09-09T02:27:45.909Z,4.57
2022-09-09T02:30:15.919Z,4.60
2022-09-09T02:32:45.247Z,5.67
2022-09-09T02:35:15.290Z,4.50
2022-09-09T02:37:46.973Z,6.50
2022-09-09T02:40:16.264Z,4.70
2022-09-09T02:42:45.381Z,5.13
2022-09-09T02:45:14.871Z,4.40
2022-09-09T02:47:50.213Z,4.70
2022-09-09T02:50:20.013Z,4.13
2022-09-09T02:52:53.850Z,4.07
2022-09-09T02:55:26.216Z,3.97
2022-09-09T02:57:55.313Z,4.17
2022-09-09T03:00:26.997Z,4.03
2022-09-09T03:02:56.768Z,3.70
2022-09-09T03:05:25.049Z,5.00
2022-09-09T03:07:53.245Z,4.47
2022-09-09T03:10:21.400Z,4.30
2022-09-09T03:12:49.675Z,4.13
2022-09-09T03:15:18.163Z,3.20
2022-09-09T03:17:46.452Z,3.50
2022-09-09T03:20:16.191Z,3.57
2022-09-09T03:22:45.958Z,5.60
2022-09-09T03:25:14.249Z,4.20
2022-09-09T03:27:42.445Z,6.70
2022-09-09T03:30:10.940Z,3.40
2022-09-09T03:32:39.140Z,4.77
2022-09-09T03:35:07.874Z,4.93
2022-09-09T03:37:37.468Z,3.97
2022-09-09T03:40:06.563Z,4.50
2022-09-09T03:42:34.769Z,6.60
2022-09-09T03:45:02.974Z,4.03
2022-09-09T03:47:31.201Z,4.67
2022-09-09T03:49:59.387Z,4.83
2022-09-09T03:52:28.040Z,4.10
2022-09-09T03:54:57.897Z,5.37
2022-09-09T03:57:26.159Z,8.80
2022-09-09T03:59:54.339Z,6.00
2022-09-09T04:02:23.087Z,4.87
2022-09-09T04:04:51.278Z,3.07
2022-09-09T04:07:19.439Z,3.87
2022-09-09T04:09:47.622Z,3.37
2022-09-09T04:12:17.590Z,3.30
2022-09-09T04:14:45.785Z,4.87
2022-09-09T04:17:13.980Z,6.00
2022-09-09T04:19:43.237Z,3.90
2022-09-09T04:22:11.580Z,3.80
2022-09-09T04:24:39.782Z,6.13
2022-09-09T04:27:08.044Z,6.03
2022-09-09T04:29:37.614Z,4.27
2022-09-09T04:32:06.222Z,4.90
2022-09-09T04:34:34.533Z,3.50
2022-09-09T04:37:02.721Z,5.30
2022-09-09T04:39:30.939Z,3.83
2022-09-09T04:41:59.215Z,4.67
2022-09-09T04:44:27.380Z,6.83
2022-09-09T04:46:57.023Z,3.90
2022-09-09T04:49:25.378Z,4.73
2022-09-09T04:51:53.758Z,4.10
2022-09-09T04:54:22.433Z,8.70
2022-09-09T04:56:52.596Z,5.20
2022-09-09T04:59:20.777Z,4.30
2022-09-09T05:01:49.006Z,7.13
2022-09-09T05:04:19.726Z,5.27
2022-09-09T05:06:47.969Z,5.37
2022-09-09T05:09:16.204Z,6.47
2022-09-09T05:11:44.913Z,8.73
2022-09-09T05:14:13.418Z,4.23
2022-09-09T05:16:41.629Z,4.70
2022-09-09T05:19:10.081Z,3.93
2022-09-09T05:21:39.686Z,7.70
2022-09-09T05:24:08.670Z,4.83
2022-09-09T05:26:37.448Z,5.10
2022-09-09T05:29:07.011Z,8.20
2022-09-09T05:31:35.644Z,7.73
2022-09-09T05:34:03.962Z,6.87
2022-09-09T05:36:32.172Z,7.00
2022-09-09T05:39:02.302Z,6.83
2022-09-09T05:41:31.287Z,5.87
2022-09-09T05:44:02.083Z,6.23
2022-09-09T05:46:31.170Z,5.37
2022-09-09T05:48:59.503Z,8.57
2022-09-09T05:51:29.088Z,7.07
2022-09-09T05:53:59.441Z,4.77
2022-09-09T05:56:29.885Z,4.27
2022-09-09T05:58:58.800Z,7.90
2022-09-09T06:01:28.355Z,5.33
2022-09-09T06:03:56.545Z,5.43
2022-09-09T06:06:26.896Z,6.10
2022-09-09T06:08:57.201Z,4.67
2022-09-09T06:11:27.435Z,5.47
2022-09-09T06:13:56.993Z,13.00
2022-09-09T06:16:26.013Z,4.43
2022-09-09T06:18:54.901Z,6.87
2022-09-09T06:21:24.379Z,5.53
2022-09-09T06:23:57.770Z,6.70
2022-09-09T06:26:29.199Z,4.23
2022-09-09T06:28:59.369Z,7.60
2022-09-09T06:31:30.084Z,5.97
2022-09-09T06:33:59.245Z,4.00
2022-09-09T06:36:28.686Z,3.23
2022-09-09T06:38:56.924Z,5.07
2022-09-09T06:41:26.593Z,3.63
2022-09-09T06:43:56.440Z,4.57
2022-09-09T06:46:28.915Z,7.87
2022-09-09T06:49:00.676Z,4.37
2022-09-09T06:51:30.230Z,3.23
2022-09-09T06:53:59.448Z,3.43
2022-09-09T06:56:29.017Z,5.07
2022-09-09T06:58:57.884Z,5.70
2022-09-09T07:01:28.974Z,5.37
2022-09-09T07:03:59.734Z,4.30
2022-09-09T07:06:28.713Z,5.67
2022-09-09T07:08:58.730Z,6.03
2022-09-09T07:11:28.294Z,6.63
2022-09-09T07:13:57.797Z,5.47
2022-09-09T07:16:28.453Z,6.27
2022-09-09T07:18:58.721Z,5.50
2022-09-09T07:21:28.221Z,6.63
2022-09-09T07:23:57.023Z,5.73
2022-09-09T07:26:26.585Z,7.33
2022-09-09T07:28:54.845Z,7.60
2022-09-09T07:31:24.107Z,4.83
2022-09-09T07:33:53.744Z,6.13
2022-09-09T07:36:23.563Z,8.50
2022-09-09T07:38:52.501Z,9.03
2022-09-09T07:41:21.597Z,7.30
2022-09-09T07:43:51.082Z,7.07
2022-09-09T07:46:20.317Z,8.90
2022-09-09T07:48:52.198Z,5.80
2022-09-09T07:51:23.380Z,7.97
2022-09-09T07:53:54.348Z,6.23
2022-09-09T07:56:23.566Z,7.90
2022-09-09T07:58:52.260Z,7.03
2022-09-09T08:01:21.484Z,5.97
2022-09-09T08:03:56.555Z,6.93
2022-09-09T08:06:27.990Z,8.17
2022-09-09T08:08:56.835Z,6.73
2022-09-09T08:11:26.034Z,5.90
2022-09-09T08:13:57.916Z,6.97
2022-09-09T08:16:30.985Z,5.77
2022-09-09T08:18:59.409Z,5.87
2022-09-09T08:21:30.426Z,5.43
2022-09-09T08:23:59.519Z,5.67
2022-09-09T08:26:29.342Z,4.97
2022-09-09T08:28:58.570Z,7.60
2022-09-09T08:31:29.038Z,7.03
2022-09-09T08:33:58.162Z,4.50
2022-09-09T08:36:27.602Z,6.03
2022-09-09T08:38:57.679Z,6.00
2022-09-09T08:41:42.669Z,6.20
2022-09-09T08:44:13.535Z,7.40
2022-09-09T08:46:50.684Z,8.02
2022-09-09T08:49:28.855Z,5.88
2022-09-09T08:51:58.214Z,8.73
2022-09-09T08:54:51.256Z,4.05
2022-09-09T08:57:22.730Z,7.90
2022-09-09T08:59:51.994Z,5.80
2022-09-09T09:02:24.235Z,3.83
2022-09-09T09:05:01.346Z,4.77
2022-09-09T09:07:34.530Z,5.22
2022-09-09T09:10:18.968Z,5.50
2022-09-09T09:12:55.885Z,7.47
2022-09-09T09:15:28.311Z,9.53
2022-09-09T09:17:59.466Z,4.25
2022-09-09T09:20:35.547Z,6.10
2022-09-09T09:23:05.905Z,7.88
2022-09-09T09:25:37.659Z,4.57
2022-09-09T09:28:13.381Z,4.72
2022-09-09T09:30:43.021Z,6.30
2022-09-09T09:33:14.571Z,5.93
2022-09-09T09:35:44.542Z,7.10
2022-09-09T09:41:08.551Z,8.35
2022-09-09T09:43:37.480Z,9.68
2022-09-09T09:46:17.651Z,5.55
2022-09-09T09:48:47.361Z,4.93
2022-09-09T09:51:17.260Z,5.63
2022-09-09T09:53:45.667Z,5.90
2022-09-09T09:56:17.244Z,5.90
2022-09-09T09:58:52.322Z,5.38
2022-09-09T10:01:25.762Z,6.50
2022-09-09T10:03:54.583Z,7.28
2022-09-09T10:06:31.824Z,5.30
2022-09-09T10:09:00.181Z,5.13
2022-09-09T10:11:33.496Z,2.92
2022-09-09T10:14:06.572Z,5.57
2022-09-09T10:16:41.331Z,5.50
2022-09-09T10:19:13.630Z,4.82
2022-09-09T10:21:56.428Z,5.40
2022-09-09T10:24:49.778Z,4.93
2022-09-09T10:27:22.127Z,5.05
2022-09-09T10:29:57.833Z,2.95
2022-09-09T10:32:35.977Z,4.80
2022-09-09T10:35:07.485Z,9.40
2022-09-09T10:37:44.947Z,4.07
2022-09-09T10:40:27.274Z,4.75
2022-09-09T10:42:59.331Z,6.93
2022-09-09T10:45:34.878Z,3.83
2022-09-09T10:48:11.094Z,5.30
2022-09-09T10:51:01.098Z,3.05
2022-09-09T10:53:38.406Z,3.03
2022-09-09T10:56:09.611Z,3.55
2022-09-09T10:58:43.928Z,3.80
2022-09-09T11:01:15.118Z,5.20
2022-09-09T11:03:44.034Z,2.50
2022-09-09T11:06:15.969Z,3.72
2022-09-09T11:08:45.004Z,3.45
2022-09-09T11:11:17.728Z,3.65
2022-09-09T11:13:52.320Z,5.45
2022-09-09T11:16:25.192Z,5.43
2022-09-09T11:18:55.233Z,3.50
2022-09-09T11:21:25.904Z,4.72
2022-09-09T11:23:57.500Z,4.57
2022-09-09T11:26:30.342Z,3.67
2022-09-09T11:29:06.149Z,2.50
2022-09-09T11:31:44.111Z,5.72
2022-09-09T11:34:32.717Z,4.78
2022-09-09T11:37:15.495Z,2.70
2022-09-09T11:40:01.722Z,3.65
2022-09-09T11:42:30.146Z,5.68
2022-09-09T11:44:59.897Z,8.75
2022-09-09T11:47:31.325Z,3.15
2022-09-09T11:50:10.880Z,4.88
2022-09-09T11:52:40.067Z,3.85
2022-09-09T11:55:13.207Z,4.47
2022-09-09T11:57:43.099Z,3.05
2022-09-09T12:00:29.812Z,2.70
2022-09-09T12:03:00.184Z,5.03
2022-09-09T12:05:38.665Z,5.30
2022-09-09T12:08:07.600Z,5.90
2022-09-09T12:10:37.029Z,4.10
2022-09-09T12:13:17.925Z,2.25
2022-09-09T12:15:50.757Z,4.45
2022-09-09T12:18:27.110Z,3.53
2022-09-09T12:21:00.331Z,5.82
2022-09-09T12:23:33.938Z,4.15
2022-09-09T12:26:19.787Z,1.77
2022-09-09T12:28:54.679Z,4.15
2022-09-09T12:31:26.638Z,2.53
2022-09-09T12:33:56.662Z,2.05
2022-09-09T12:36:26.752Z,3.97
2022-09-09T12:38:55.605Z,2.28
2022-09-09T12:41:24.582Z,3.42
2022-09-09T12:43:53.013Z,2.05
2022-09-09T12:46:27.379Z,1.65
2022-09-09T12:48:57.701Z,5.60
2022-09-09T12:51:28.230Z,3.25
2022-09-09T12:53:57.465Z,2.28
2022-09-09T12:56:27.671Z,3.95
2022-09-09T12:58:57.091Z,2.20
2022-09-09T13:01:26.326Z,2.90
2022-09-09T13:03:55.133Z,2.67
2022-09-09T13:06:29.151Z,3.05
2022-09-09T13:08:59.527Z,4.43
2022-09-09T13:11:30.690Z,2.63
2022-09-09T13:13:59.817Z,3.97
2022-09-09T13:16:32.721Z,2.15
2022-09-09T13:19:02.758Z,4.75
2022-09-09T13:21:36.082Z,1.63
2022-09-09T13:24:05.315Z,2.30
2022-09-09T13:26:33.681Z,2.55
2022-09-09T13:29:11.229Z,3.22
2022-09-09T13:31:39.760Z,3.70
2022-09-09T13:34:14.118Z,2.88
2022-09-09T13:36:44.172Z,3.00
2022-09-09T13:39:18.245Z,3.50
2022-09-09T13:41:47.206Z,3.47
2022-09-09T13:44:20.166Z,1.38
2022-09-09T13:46:48.460Z,2.50
2022-09-09T13:49:23.937Z,2.70
2022-09-09T13:51:54.972Z,4.20
2022-09-09T13:54:23.823Z,2.22
2022-09-09T13:56:52.332Z,2.58
2022-09-09T13:59:22.537Z,1.10
2022-09-09T14:01:53.354Z,3.22
2022-09-09T14:04:22.795Z,3.00
2022-09-09T14:06:51.558Z,1.15
2022-09-09T14:09:21.200Z,2.40
2022-09-09T14:11:49.561Z,2.63
2022-09-09T14:14:17.836Z,2.55
2022-09-09T14:16:46.352Z,2.85
2022-09-09T14:19:15.294Z,5.55
2022-09-09T14:21:43.621Z,5.00
2022-09-09T14:24:12.566Z,5.40
2022-09-09T14:26:42.378Z,3.30
2022-09-09T14:29:10.607Z,2.77
2022-09-09T14:31:38.812Z,3.33
2022-09-09T14:34:07.090Z,7.53
2022-09-09T14:36:35.546Z,3.40
2022-09-09T14:39:03.717Z,3.90
2022-09-09T14:41:32.103Z,3.10
2022-09-09T14:44:01.745Z,3.60
2022-09-09T14:46:30.559Z,4.30
2022-09-09T14:48:58.749Z,1.73
2022-09-09T14:51:28.271Z,4.72
2022-09-09T14:53:58.104Z,2.35
2022-09-09T14:56:27.322Z,4.43
2022-09-09T14:58:56.186Z,2.67
2022-09-09T15:01:28.227Z,2.50
2022-09-09T15:03:58.765Z,2.00
2022-09-09T15:06:27.821Z,3.97
2022-09-09T15:08:58.629Z,2.53
2022-09-09T15:11:28.869Z,2.35
2022-09-09T15:13:57.198Z,2.83
2022-09-09T15:16:27.719Z,2.22
2022-09-09T15:18:59.997Z,2.13
2022-09-09T15:21:29.173Z,1.85
2022-09-09T15:23:57.816Z,2.63
2022-09-09T15:26:26.796Z,2.20
2022-09-09T15:28:55.171Z,1.20
2022-09-09T15:31:24.277Z,1.70
2022-09-09T15:33:54.538Z,1.52
2022-09-09T15:36:23.528Z,9.35
2022-09-09T15:38:52.038Z,1.45
2022-09-09T15:41:21.371Z,1.52
2022-09-09T15:43:50.906Z,2.10
2022-09-09T15:46:27.055Z,1.95
2022-09-09T15:48:57.418Z,2.97
2022-09-09T15:51:41.652Z,2.65
2022-09-09T15:54:13.108Z,2.50
2022-09-09T15:56:41.451Z,3.65
2022-09-09T15:59:09.707Z,3.23
2022-09-09T16:01:38.783Z,2.15
2022-09-09T16:04:08.472Z,3.63
2022-09-09T16:06:37.309Z,2.28
2022-09-09T16:09:06.478Z,3.60
2022-09-09T16:11:36.566Z,2.23
2022-09-09T16:14:06.269Z,4.90
2022-09-09T16:16:36.144Z,2.70
2022-09-09T16:19:06.306Z,3.10
2022-09-09T16:21:38.406Z,3.15
2022-09-09T16:24:07.737Z,2.87
2022-09-09T16:26:36.976Z,3.38
2022-09-09T16:29:05.710Z,4.27
2022-09-09T16:31:34.117Z,6.27
2022-09-09T16:34:04.193Z,3.60
2022-09-09T16:36:36.038Z,6.63
2022-09-09T16:39:06.454Z,3.80
2022-09-09T16:41:35.065Z,4.40
2022-09-09T16:44:04.606Z,2.17
2022-09-09T16:46:33.795Z,3.07
2022-09-09T16:49:03.227Z,4.27
2022-09-09T16:51:32.459Z,6.07
2022-09-09T16:54:01.409Z,3.10
2022-09-09T16:56:33.939Z,2.40
2022-09-09T16:59:03.118Z,2.50
2022-09-09T17:01:32.634Z,2.03
2022-09-09T17:04:02.728Z,2.03
2022-09-09T17:06:31.462Z,1.20
2022-09-09T17:09:00.596Z,1.53
2022-09-09T17:11:29.471Z,1.67
2022-09-09T17:14:00.048Z,1.93
2022-09-09T17:16:29.310Z,1.80
2022-09-09T17:18:58.021Z,1.77
2022-09-09T17:21:28.099Z,1.93
2022-09-09T17:23:56.736Z,2.07
2022-09-09T17:26:27.550Z,2.27
2022-09-09T17:28:59.377Z,1.60
2022-09-09T17:31:30.441Z,2.33
2022-09-09T17:34:00.099Z,2.23
2022-09-09T17:36:29.613Z,2.57
2022-09-09T17:38:57.852Z,1.13
2022-09-09T17:41:26.787Z,3.20
2022-09-09T17:43:55.681Z,2.87
2022-09-09T17:46:25.010Z,1.97
2022-09-09T17:48:55.631Z,2.63
2022-09-09T17:51:25.954Z,2.17
2022-09-09T17:53:55.686Z,2.73
2022-09-09T17:56:25.730Z,2.67
2022-09-09T17:58:54.750Z,2.17
2022-09-09T18:01:24.101Z,2.17
2022-09-09T18:03:52.918Z,3.10
2022-09-09T18:06:24.054Z,1.50
2022-09-09T18:08:53.010Z,3.20
2022-09-09T18:11:21.710Z,3.47
2022-09-09T18:13:51.266Z,1.60
2022-09-09T18:16:19.817Z,3.30
2022-09-09T18:18:48.296Z,1.80
2022-09-09T18:21:17.720Z,2.43
2022-09-09T18:23:49.430Z,2.10
2022-09-09T18:26:18.563Z,2.27
2022-09-09T18:28:50.245Z,2.97
2022-09-09T18:31:19.647Z,1.47
2022-09-09T18:33:50.443Z,3.07
2022-09-09T18:36:19.846Z,2.23
2022-09-09T18:38:49.651Z,3.67
2022-09-09T18:41:18.315Z,2.03
2022-09-09T18:43:46.872Z,2.93
2022-09-09T18:46:16.163Z,2.93
2022-09-09T18:48:45.748Z,3.00
2022-09-09T18:51:14.660Z,1.87
2022-09-09T18:53:42.969Z,2.60
2022-09-09T18:56:13.516Z,4.67
2022-09-09T18:58:43.956Z,2.30
2022-09-09T19:01:13.088Z,1.97
2022-09-09T19:03:41.627Z,2.77
2022-09-09T19:06:10.699Z,4.17
2022-09-09T19:08:39.615Z,1.73
2022-09-09T19:11:09.490Z,3.13
2022-09-09T19:13:39.766Z,2.23
2022-09-09T19:16:08.505Z,2.90
2022-09-09T19:18:37.721Z,3.67
2022-09-09T19:21:12.735Z,4.00
2022-09-09T19:23:41.316Z,2.70
2022-09-09T19:26:11.046Z,5.07
2022-09-09T19:28:40.789Z,4.37
2022-09-09T19:31:10.554Z,3.93
2022-09-09T19:33:39.199Z,3.70
2022-09-09T19:36:10.150Z,3.27
2022-09-09T19:38:38.795Z,2.77
2022-09-09T19:41:08.135Z,4.87
2022-09-09T19:43:36.415Z,3.63
2022-09-09T19:46:07.606Z,3.77
2022-09-09T19:48:37.485Z,3.07
2022-09-09T19:51:06.557Z,3.57
2022-09-09T19:53:37.665Z,3.83
2022-09-09T19:56:06.309Z,4.67
2022-09-09T19:58:35.788Z,5.50
2022-09-09T20:01:10.638Z,3.70
2022-09-09T20:03:39.758Z,4.43
2022-09-09T20:06:08.596Z,3.70
2022-09-09T20:08:37.614Z,5.17
2022-09-09T20:11:06.104Z,2.43
2022-09-09T20:13:35.262Z,3.77
2022-09-09T20:16:04.537Z,3.10
2022-09-09T20:18:35.116Z,4.07
2022-09-09T20:21:04.518Z,2.47
2022-09-09T20:23:33.741Z,2.40
2022-09-09T20:26:03.222Z,2.90
2022-09-09T20:28:31.435Z,2.80
2022-09-09T20:31:05.240Z,1.90
2022-09-09T20:33:35.772Z,1.97
2022-09-09T20:36:11.498Z,1.93
2022-09-09T20:38:42.849Z,1.70
2022-09-09T20:41:14.322Z,2.30
2022-09-09T20:43:48.885Z,4.40
2022-09-09T20:46:18.404Z,2.50
2022-09-09T20:48:48.690Z,3.00
2022-09-09T20:51:17.421Z,2.77
2022-09-09T20:53:45.699Z,3.27
2022-09-09T20:56:16.790Z,3.93
2022-09-09T20:58:45.222Z,5.63
2022-09-09T21:01:16.334Z,4.97
2022-09-09T21:03:44.608Z,4.67
2022-09-09T21:06:14.689Z,4.80
2022-09-09T21:08:43.221Z,4.33
2022-09-09T21:11:11.587Z,4.50
2022-09-09T21:13:40.379Z,4.60
2022-09-09T21:16:09.825Z,4.90
2022-09-09T21:18:40.432Z,4.77
2022-09-09T21:21:09.315Z,5.03
2022-09-09T21:23:39.133Z,5.83
2022-09-09T21:26:08.167Z,5.30
2022-09-09T21:28:36.501Z,4.70
2022-09-09T21:31:05.608Z,4.57
2022-09-09T21:33:34.705Z,4.60
2022-09-09T21:36:06.674Z,4.20
2022-09-09T21:38:35.483Z,5.33
2022-09-09T21:41:06.182Z,4.30
2022-09-09T21:43:34.750Z,5.33
2022-09-09T21:46:07.707Z,4.10
2022-09-09T21:48:36.133Z,4.27
2022-09-09T21:51:05.790Z,4.27
2022-09-09T21:53:34.647Z,4.60
2022-09-09T21:56:03.425Z,5.07
2022-09-09T21:58:32.964Z,6.00
2022-09-09T22:01:01.184Z,6.50
2022-09-09T22:03:29.429Z,6.73
2022-09-09T22:05:58.548Z,7.17
2022-09-09T22:08:26.751Z,7.87
2022-09-09T22:10:54.955Z,7.80
2022-09-09T22:13:23.179Z,8.90
2022-09-09T22:15:52.812Z,8.67
2022-09-09T22:18:21.053Z,8.87
2022-09-09T22:20:49.262Z,9.50
2022-09-09T22:23:17.535Z,9.40
2022-09-09T22:25:45.757Z,9.23
2022-09-09T22:28:14.026Z,9.60
2022-09-09T22:30:42.247Z,9.87
2022-09-09T22:33:12.434Z,10.03
2022-09-09T22:35:42.331Z,10.17
2022-09-09T22:38:11.111Z,10.43
2022-09-09T22:40:39.690Z,9.90
2022-09-09T22:43:08.054Z,10.33
2022-09-09T22:45:37.271Z,10.87
2022-09-09T22:48:06.004Z,11.37
2022-09-09T22:50:41.922Z,11.63
2022-09-09T22:53:13.134Z,11.63
2022-09-09T22:55:41.375Z,12.10
2022-09-09T22:58:09.597Z,13.10
2022-09-09T23:00:39.469Z,11.87
2022-09-09T23:03:07.919Z,12.10
2022-09-09T23:05:38.589Z,11.70
2022-09-09T23:08:07.213Z,12.80
2022-09-09T23:10:35.541Z,12.47
2022-09-09T23:13:03.933Z,12.73
2022-09-09T23:15:32.212Z,13.40
2022-09-09T23:18:00.391Z,12.47
2022-09-09T23:20:29.451Z,13.87
2022-09-09T23:22:59.030Z,12.53
2022-09-09T23:25:28.145Z,13.03
2022-09-09T23:27:56.342Z,12.50
2022-09-09T23:30:24.544Z,12.63
2022-09-09T23:32:52.740Z,12.67
2022-09-09T23:35:21.341Z,12.33
2022-09-09T23:37:49.629Z,11.73
2022-09-09T23:40:19.370Z,13.07
2022-09-09T23:42:47.910Z,12.43
2022-09-09T23:45:16.181Z,13.10
2022-09-09T23:47:44.358Z,11.73
2022-09-09T23:50:12.781Z,11.87
2022-09-09T23:52:44.419Z,12.33
2022-09-09T23:55:12.722Z,11.67
2022-09-09T23:57:42.261Z,11.67
